9PA2 weather

Public forecast

Using degrees Fahrenheit for public forecast. Weather courtesy of forecast.io.

Closest aviation weather report (METAR) to Old Plains Airport

Closest report is Quakertown Airport, 3.7 nm (6.8 km) NE. Retrieved 2020/08/12 01:15 UTC (4 minutes ago):

KUKT 120115Z AUTO 00000KT 10SM CLR 27/24 A2995 RMK A01

Closest aviation forecast (TAF) to Old Plains Airport

Closest forecast is Lehigh Valley International Airport, 15.5 nm (28.6 km) N. Retrieved 2020-08-12 00:27 UTC (52 minutes ago):

TAF KABE 112325Z 1200/1224 20009KT P6SM FEW050 FM120100 VRB03KT P6SM BKN045 FM120900 VRB02KT 5SM BR BKN040 FM121200 VRB03KT P6SM BKN045 FM121800 21006KT P6SM VCTS BKN045CB